createdAt,value
2022-10-30T00:01:06.400Z,12.60
2022-10-30T00:03:35.194Z,12.70
2022-10-30T00:06:06.829Z,12.70
2022-10-30T00:08:37.160Z,12.70
2022-10-30T00:11:10.727Z,12.70
2022-10-30T00:13:39.993Z,12.70
2022-10-30T00:16:09.767Z,12.70
2022-10-30T00:18:39.984Z,12.70
2022-10-30T00:21:10.208Z,12.70
2022-10-30T00:23:41.002Z,12.70
2022-10-30T00:26:09.933Z,12.70
2022-10-30T00:28:38.552Z,12.80
2022-10-30T00:31:07.259Z,12.80
2022-10-30T00:33:35.893Z,12.70
2022-10-30T00:36:06.566Z,12.70
2022-10-30T00:38:36.366Z,12.70
2022-10-30T00:41:06.644Z,12.70
2022-10-30T00:43:38.059Z,12.70
2022-10-30T00:46:16.149Z,12.70
2022-10-30T00:48:47.134Z,12.60
2022-10-30T00:51:16.826Z,12.60
2022-10-30T00:53:48.028Z,12.60
2022-10-30T00:56:21.533Z,12.60
2022-10-30T00:58:53.813Z,12.70
2022-10-30T01:01:27.448Z,12.60
2022-10-30T01:03:59.228Z,12.60
2022-10-30T01:06:28.773Z,12.70
2022-10-30T01:08:59.997Z,12.70
2022-10-30T01:11:30.977Z,12.70
2022-10-30T01:14:04.242Z,12.70
2022-10-30T01:16:50.316Z,12.70
2022-10-30T01:19:26.236Z,12.80
2022-10-30T01:22:10.675Z,12.80
2022-10-30T01:24:59.948Z,12.80
2022-10-30T01:27:40.478Z,12.80
2022-10-30T01:30:23.976Z,12.80
2022-10-30T01:33:05.972Z,12.70
2022-10-30T01:35:40.427Z,12.60
2022-10-30T01:38:14.860Z,12.50
2022-10-30T01:40:44.902Z,12.60
2022-10-30T01:43:15.819Z,12.60
2022-10-30T01:46:09.997Z,12.60
2022-10-30T01:49:10.461Z,12.60
2022-10-30T01:51:58.784Z,12.60
2022-10-30T01:54:38.636Z,12.50
2022-10-30T01:57:14.365Z,12.60
2022-10-30T01:59:51.219Z,12.50
2022-10-30T02:02:20.535Z,12.60
2022-10-30T02:04:49.228Z,12.50
2022-10-30T02:07:18.146Z,12.50
2022-10-30T02:09:52.866Z,12.40
2022-10-30T02:12:22.327Z,12.50
2022-10-30T02:14:56.043Z,12.30
2022-10-30T02:17:26.553Z,12.30
2022-10-30T02:19:55.479Z,12.20
2022-10-30T02:22:26.969Z,12.10
2022-10-30T02:24:55.627Z,12.10
2022-10-30T02:27:26.359Z,12.10
2022-10-30T02:29:54.968Z,12.10
2022-10-30T02:32:23.870Z,12.00
2022-10-30T02:34:52.452Z,12.00
2022-10-30T02:37:21.079Z,11.90
2022-10-30T02:39:51.393Z,11.80
2022-10-30T02:42:20.715Z,11.90
2022-10-30T02:44:49.540Z,12.00
2022-10-30T02:47:18.133Z,12.10
2022-10-30T02:49:46.736Z,12.10
2022-10-30T02:52:15.523Z,12.10
2022-10-30T02:54:44.451Z,11.90
2022-10-30T02:57:14.426Z,11.80
2022-10-30T02:59:43.081Z,11.80
2022-10-30T03:02:12.027Z,11.70
2022-10-30T03:04:40.786Z,11.70
2022-10-30T03:07:09.596Z,11.60
2022-10-30T03:09:38.385Z,11.60
2022-10-30T03:12:07.644Z,11.60
2022-10-30T03:14:37.620Z,11.50
2022-10-30T03:17:06.561Z,11.70
2022-10-30T03:19:35.708Z,11.70
2022-10-30T03:22:04.312Z,11.90
2022-10-30T03:24:33.225Z,11.90
2022-10-30T03:27:01.900Z,11.90
2022-10-30T03:29:31.077Z,12.00
2022-10-30T03:32:01.277Z,12.00
2022-10-30T03:34:34.617Z,11.90
2022-10-30T03:37:07.210Z,11.90
2022-10-30T03:39:36.699Z,11.90
2022-10-30T03:42:05.679Z,12.00
2022-10-30T03:44:34.391Z,11.90
2022-10-30T03:47:06.252Z,11.80
2022-10-30T03:49:39.842Z,11.80
2022-10-30T03:52:12.715Z,11.90
2022-10-30T03:54:41.291Z,11.80
2022-10-30T03:57:11.423Z,11.90
2022-10-30T03:59:49.658Z,12.00
2022-10-30T04:02:38.315Z,12.00
2022-10-30T04:05:07.506Z,12.10
2022-10-30T04:07:36.148Z,12.10
2022-10-30T04:10:05.572Z,12.20
2022-10-30T04:12:35.871Z,12.10
2022-10-30T04:15:05.244Z,12.10
2022-10-30T04:17:34.397Z,12.10
2022-10-30T04:20:10.003Z,12.10
2022-10-30T04:22:38.607Z,12.20
2022-10-30T04:25:07.962Z,12.10
2022-10-30T04:27:41.648Z,12.20
2022-10-30T04:30:12.893Z,12.20
2022-10-30T04:32:48.132Z,12.20
2022-10-30T04:35:19.890Z,12.20
2022-10-30T04:37:54.451Z,12.20
2022-10-30T04:40:23.552Z,12.20
2022-10-30T04:42:57.971Z,12.30
2022-10-30T04:45:27.658Z,12.30
2022-10-30T04:48:03.004Z,12.20
2022-10-30T04:50:36.175Z,12.30
2022-10-30T04:53:07.474Z,12.40
2022-10-30T04:55:36.366Z,12.50
2022-10-30T04:58:05.061Z,12.60
2022-10-30T05:00:38.332Z,12.50
2022-10-30T05:03:19.697Z,12.50
2022-10-30T05:05:57.149Z,12.50
2022-10-30T05:08:25.940Z,12.50
2022-10-30T05:10:55.207Z,12.40
2022-10-30T05:13:24.194Z,12.40
2022-10-30T05:15:56.191Z,12.40
2022-10-30T05:18:25.360Z,12.40
2022-10-30T05:20:55.842Z,12.30
2022-10-30T05:23:24.718Z,12.20
2022-10-30T05:25:54.035Z,12.10
2022-10-30T05:28:22.823Z,12.10
2022-10-30T05:30:57.379Z,12.00
2022-10-30T05:33:55.157Z,12.00
2022-10-30T05:36:27.270Z,12.00
2022-10-30T05:38:56.060Z,11.90
2022-10-30T05:41:37.687Z,11.90
2022-10-30T05:44:06.793Z,11.90
2022-10-30T05:46:36.005Z,11.90
2022-10-30T05:49:15.510Z,11.90
2022-10-30T05:51:45.563Z,11.90
2022-10-30T05:54:14.313Z,11.90
2022-10-30T05:56:57.916Z,12.00
2022-10-30T05:59:26.697Z,11.90
2022-10-30T06:01:56.062Z,12.00
2022-10-30T06:04:25.481Z,11.90
2022-10-30T06:06:55.995Z,11.90
2022-10-30T06:09:24.803Z,11.90
2022-10-30T06:12:12.147Z,11.90
2022-10-30T06:15:01.330Z,12.00
2022-10-30T06:17:32.354Z,12.00
2022-10-30T06:20:08.403Z,12.00
2022-10-30T06:22:57.836Z,12.00
2022-10-30T06:25:39.395Z,12.10
2022-10-30T06:28:15.168Z,12.10
2022-10-30T06:30:44.559Z,12.00
2022-10-30T06:33:13.416Z,12.00
2022-10-30T06:35:50.483Z,12.10
2022-10-30T06:38:22.358Z,12.30
2022-10-30T06:40:53.089Z,12.30
2022-10-30T06:43:48.291Z,12.40
2022-10-30T06:46:22.153Z,12.50
2022-10-30T06:48:52.442Z,12.40
2022-10-30T06:51:21.391Z,12.50
2022-10-30T06:53:51.882Z,12.60
2022-10-30T06:56:38.974Z,12.70
2022-10-30T06:59:26.109Z,12.80
2022-10-30T07:02:14.785Z,12.70
2022-10-30T07:04:50.517Z,12.50
2022-10-30T07:07:20.033Z,12.50
2022-10-30T07:09:50.359Z,12.50
2022-10-30T07:12:23.365Z,12.50
2022-10-30T07:15:12.340Z,12.50
2022-10-30T07:17:59.940Z,12.40
2022-10-30T07:20:31.023Z,12.30
2022-10-30T07:23:00.571Z,12.30
2022-10-30T07:25:30.636Z,12.30
2022-10-30T07:28:17.411Z,12.30
2022-10-30T07:30:55.568Z,12.40
2022-10-30T07:33:50.343Z,12.40
2022-10-30T07:36:57.477Z,12.60
2022-10-30T07:39:41.724Z,12.90
2022-10-30T07:42:23.946Z,13.10
2022-10-30T07:45:15.872Z,13.30
2022-10-30T07:48:19.362Z,13.60
2022-10-30T07:50:57.591Z,13.70
2022-10-30T07:53:26.231Z,13.90
2022-10-30T07:55:55.066Z,14.10
2022-10-30T07:58:48.279Z,14.20
2022-10-30T08:01:35.717Z,14.20
2022-10-30T08:04:18.535Z,14.30
2022-10-30T08:06:47.508Z,14.40
2022-10-30T08:09:16.408Z,14.40
2022-10-30T08:11:48.374Z,14.60
2022-10-30T08:14:19.910Z,14.50
2022-10-30T08:16:48.838Z,14.90
2022-10-30T08:19:17.608Z,15.00
2022-10-30T08:21:46.193Z,15.00
2022-10-30T08:24:19.656Z,15.10
2022-10-30T08:26:53.121Z,15.10
2022-10-30T08:29:25.404Z,15.10
2022-10-30T08:31:54.786Z,14.90
2022-10-30T08:34:27.572Z,14.90
2022-10-30T08:36:57.687Z,15.10
2022-10-30T08:39:26.688Z,15.10
2022-10-30T08:41:59.669Z,15.30
2022-10-30T08:44:34.053Z,15.40
2022-10-30T08:47:20.962Z,15.40
2022-10-30T08:49:49.614Z,15.30
2022-10-30T08:52:21.444Z,15.30
2022-10-30T08:54:55.925Z,15.30
2022-10-30T08:57:26.893Z,15.40
2022-10-30T08:59:59.273Z,15.50
2022-10-30T09:02:47.819Z,15.70
2022-10-30T09:05:35.385Z,15.70
2022-10-30T09:08:24.126Z,15.70
2022-10-30T09:11:12.555Z,15.60
2022-10-30T09:13:41.444Z,15.90
2022-10-30T09:16:12.281Z,15.70
2022-10-30T09:18:41.076Z,15.90
2022-10-30T09:21:09.925Z,16.10
2022-10-30T09:23:45.451Z,16.20
2022-10-30T09:26:40.373Z,16.00
2022-10-30T09:29:19.892Z,16.00
2022-10-30T09:32:10.554Z,16.00
2022-10-30T09:35:02.290Z,16.00
2022-10-30T09:37:36.235Z,15.90
2022-10-30T09:40:10.164Z,16.10
2022-10-30T09:42:47.412Z,16.10
2022-10-30T09:45:30.067Z,16.30
2022-10-30T09:48:21.671Z,16.40
2022-10-30T09:51:42.715Z,16.60
2022-10-30T09:54:20.828Z,16.80
2022-10-30T09:57:01.276Z,16.90
2022-10-30T09:59:44.625Z,17.00
2022-10-30T10:02:37.001Z,16.90
2022-10-30T10:05:16.828Z,17.00
2022-10-30T10:08:10.253Z,17.00
2022-10-30T10:11:15.510Z,17.10
2022-10-30T10:13:51.511Z,17.20
2022-10-30T10:16:21.902Z,17.20
2022-10-30T10:18:57.503Z,17.20
2022-10-30T10:21:29.976Z,17.30
2022-10-30T10:24:02.194Z,17.40
2022-10-30T10:26:36.428Z,17.40
2022-10-30T10:29:25.964Z,17.40
2022-10-30T10:32:11.552Z,17.50
2022-10-30T10:34:54.211Z,17.40
2022-10-30T10:37:35.888Z,17.60
2022-10-30T10:40:23.877Z,17.60
2022-10-30T10:43:04.957Z,18.00
2022-10-30T10:45:42.575Z,18.20
2022-10-30T10:48:38.484Z,18.50
2022-10-30T10:51:11.934Z,18.70
2022-10-30T10:53:49.840Z,18.90
2022-10-30T10:56:20.262Z,19.00
2022-10-30T10:58:53.250Z,19.20
2022-10-30T11:01:27.646Z,19.60
2022-10-30T11:04:01.072Z,19.60
2022-10-30T11:06:34.576Z,19.40
2022-10-30T11:09:16.614Z,19.50
2022-10-30T11:11:45.590Z,19.50
2022-10-30T11:14:16.629Z,19.40
2022-10-30T11:16:59.527Z,19.20
2022-10-30T11:19:30.863Z,19.10
2022-10-30T11:22:00.443Z,18.90
2022-10-30T11:24:33.457Z,19.00
2022-10-30T11:27:24.505Z,18.90
2022-10-30T11:29:58.835Z,19.10
2022-10-30T11:32:30.111Z,19.20
2022-10-30T11:35:04.188Z,19.20
2022-10-30T11:37:34.787Z,19.10
2022-10-30T11:40:08.159Z,19.20
2022-10-30T11:42:37.629Z,19.30
2022-10-30T11:45:14.489Z,19.20
2022-10-30T11:47:44.387Z,19.30
2022-10-30T11:50:20.394Z,19.40
2022-10-30T11:52:52.402Z,19.50
2022-10-30T11:55:28.656Z,19.50
2022-10-30T11:57:59.314Z,19.40
2022-10-30T12:00:31.865Z,19.50
2022-10-30T12:03:03.520Z,19.80
2022-10-30T12:05:38.535Z,19.90
2022-10-30T12:08:21.189Z,20.20
2022-10-30T12:11:00.812Z,20.40
2022-10-30T12:13:35.163Z,20.40
2022-10-30T12:16:10.970Z,20.50
2022-10-30T12:18:41.508Z,20.50
2022-10-30T12:21:10.445Z,20.70
2022-10-30T12:23:40.779Z,20.60
2022-10-30T12:26:14.076Z,20.50
2022-10-30T12:28:52.258Z,20.50
2022-10-30T12:31:24.765Z,20.30
2022-10-30T12:34:03.710Z,20.40
2022-10-30T12:36:37.967Z,20.30
2022-10-30T12:39:13.385Z,19.90
2022-10-30T12:41:49.052Z,19.70
2022-10-30T12:44:21.735Z,19.70
2022-10-30T12:46:57.185Z,19.60
2022-10-30T12:49:32.510Z,19.50
2022-10-30T12:52:08.099Z,19.50
2022-10-30T12:54:44.851Z,19.40
2022-10-30T12:57:18.114Z,19.40
2022-10-30T12:59:58.574Z,19.40
2022-10-30T13:02:52.135Z,19.30
2022-10-30T13:05:27.725Z,19.20
2022-10-30T13:08:05.756Z,19.20
2022-10-30T13:10:40.181Z,19.10
2022-10-30T13:13:14.354Z,19.00
2022-10-30T13:15:47.461Z,19.00
2022-10-30T13:18:18.775Z,18.90
2022-10-30T13:21:01.501Z,18.80
2022-10-30T13:23:37.179Z,18.70
2022-10-30T13:26:14.822Z,18.70
2022-10-30T13:28:53.692Z,18.70
2022-10-30T13:31:30.161Z,18.70
2022-10-30T13:34:04.443Z,18.60
2022-10-30T13:36:42.490Z,18.60
2022-10-30T13:39:23.301Z,18.50
2022-10-30T13:42:15.899Z,18.40
2022-10-30T13:44:56.772Z,18.50
2022-10-30T13:47:33.667Z,18.50
2022-10-30T13:50:19.789Z,18.50
2022-10-30T13:52:54.894Z,18.30
2022-10-30T13:55:27.557Z,18.10
2022-10-30T13:58:02.650Z,18.10
2022-10-30T14:00:51.338Z,18.10
2022-10-30T14:03:38.957Z,18.10
2022-10-30T14:06:18.371Z,18.00
2022-10-30T14:08:53.983Z,18.00
2022-10-30T14:11:22.878Z,18.10
2022-10-30T14:13:56.583Z,18.10
2022-10-30T14:16:42.776Z,18.20
2022-10-30T14:19:12.967Z,18.20
2022-10-30T14:21:55.443Z,18.10
2022-10-30T14:27:11.270Z,17.90
2022-10-30T14:29:49.291Z,17.70
2022-10-30T14:32:42.660Z,17.60
2022-10-30T14:35:33.243Z,17.40
2022-10-30T14:38:28.691Z,17.20
2022-10-30T14:41:14.715Z,17.10
2022-10-30T14:43:50.878Z,17.00
2022-10-30T14:46:28.540Z,17.00
2022-10-30T14:49:07.073Z,16.90
2022-10-30T14:51:42.682Z,16.90
2022-10-30T14:54:18.748Z,16.90
2022-10-30T14:56:49.405Z,16.90
2022-10-30T14:59:35.484Z,16.90
2022-10-30T15:02:22.436Z,16.80
2022-10-30T15:05:19.067Z,16.80
2022-10-30T15:07:53.774Z,16.70
2022-10-30T15:10:31.724Z,16.50
2022-10-30T15:13:10.808Z,16.40
2022-10-30T15:15:39.880Z,16.40
2022-10-30T15:18:11.171Z,16.30
2022-10-30T15:20:41.632Z,16.20
2022-10-30T15:23:13.623Z,16.10
2022-10-30T15:25:48.859Z,16.20
2022-10-30T15:28:20.713Z,16.10
2022-10-30T15:31:04.144Z,16.00
2022-10-30T15:33:35.486Z,16.00
2022-10-30T15:36:06.567Z,15.90
2022-10-30T15:38:35.474Z,15.80
2022-10-30T15:41:05.393Z,15.70
2022-10-30T15:43:36.728Z,15.60
2022-10-30T15:46:11.175Z,15.60
2022-10-30T15:48:42.935Z,15.40
2022-10-30T15:51:18.143Z,15.50
2022-10-30T15:53:49.093Z,15.50
2022-10-30T15:56:22.406Z,15.50
2022-10-30T15:58:54.430Z,15.40
2022-10-30T16:01:28.481Z,15.40
2022-10-30T16:03:57.571Z,15.30
2022-10-30T16:06:29.590Z,15.20
2022-10-30T16:08:58.580Z,15.10
2022-10-30T16:11:28.650Z,15.10
2022-10-30T16:13:57.282Z,15.00
2022-10-30T16:16:29.119Z,15.00
2022-10-30T16:19:02.045Z,15.10
2022-10-30T16:21:35.147Z,15.00
2022-10-30T16:24:05.903Z,14.90
2022-10-30T16:26:37.753Z,14.80
2022-10-30T16:29:21.307Z,14.60
2022-10-30T16:31:51.680Z,14.40
2022-10-30T16:34:26.417Z,14.20
2022-10-30T16:36:58.140Z,14.10
2022-10-30T16:39:27.592Z,14.00
2022-10-30T16:41:59.124Z,13.90
2022-10-30T16:44:29.426Z,13.80
2022-10-30T16:47:01.013Z,13.70
2022-10-30T16:49:32.579Z,13.70
2022-10-30T16:52:06.623Z,13.80
2022-10-30T16:54:39.354Z,13.90
2022-10-30T16:57:17.831Z,14.00
2022-10-30T16:59:49.595Z,14.10
2022-10-30T17:02:21.301Z,14.20
2022-10-30T17:04:57.195Z,14.30
2022-10-30T17:07:28.960Z,14.20
2022-10-30T17:09:58.679Z,14.10
2022-10-30T17:12:29.008Z,13.90
2022-10-30T17:15:04.825Z,13.90
2022-10-30T17:17:36.478Z,14.00
2022-10-30T17:20:15.612Z,14.20
2022-10-30T17:22:47.622Z,14.20
2022-10-30T17:25:18.484Z,14.20
2022-10-30T17:27:49.515Z,14.20
2022-10-30T17:30:38.402Z,14.20
2022-10-30T17:33:27.398Z,14.10
2022-10-30T17:35:56.350Z,13.90
2022-10-30T17:38:26.413Z,13.80
2022-10-30T17:40:55.354Z,13.80
2022-10-30T17:43:28.557Z,13.80
2022-10-30T17:45:57.638Z,13.80
2022-10-30T17:48:29.055Z,13.90
2022-10-30T17:50:57.615Z,13.80
2022-10-30T17:53:28.100Z,13.80
2022-10-30T17:56:00.885Z,13.60
2022-10-30T17:58:30.993Z,13.30
2022-10-30T18:01:00.570Z,13.10
2022-10-30T18:03:29.667Z,13.00
2022-10-30T18:06:00.644Z,13.00
2022-10-30T18:08:31.010Z,12.90
2022-10-30T18:10:59.602Z,12.90
2022-10-30T18:13:28.438Z,13.00
2022-10-30T18:15:59.409Z,13.10
2022-10-30T18:18:28.101Z,13.20
2022-10-30T18:20:56.930Z,13.10
2022-10-30T18:26:19.504Z,12.80
2022-10-30T18:28:48.486Z,12.70
2022-10-30T18:31:18.932Z,12.60
2022-10-30T18:33:47.941Z,12.60
2022-10-30T18:36:18.739Z,12.70
2022-10-30T18:38:47.828Z,12.50
2022-10-30T18:41:20.599Z,12.50
2022-10-30T18:43:49.508Z,12.40
2022-10-30T18:46:18.424Z,12.40
2022-10-30T18:48:47.057Z,12.40
2022-10-30T18:51:19.794Z,12.40
2022-10-30T18:53:52.640Z,12.40
2022-10-30T18:56:24.536Z,12.40
2022-10-30T18:58:56.725Z,12.30
2022-10-30T19:01:31.598Z,12.30
2022-10-30T19:04:02.351Z,12.30
2022-10-30T19:06:32.963Z,12.40
2022-10-30T19:09:01.533Z,12.60
2022-10-30T19:11:32.130Z,12.90
2022-10-30T19:14:01.512Z,12.90
2022-10-30T19:16:30.728Z,12.90
2022-10-30T19:18:59.611Z,12.90
2022-10-30T19:21:28.259Z,13.00
2022-10-30T19:23:57.110Z,13.10
2022-10-30T19:26:25.769Z,13.10
2022-10-30T19:28:56.287Z,13.00
2022-10-30T19:31:24.905Z,13.00
2022-10-30T19:33:57.345Z,12.80
2022-10-30T19:36:29.332Z,12.70
2022-10-30T19:38:58.089Z,12.70
2022-10-30T19:41:27.641Z,12.60
2022-10-30T19:43:57.872Z,12.60
2022-10-30T19:46:26.994Z,12.50
2022-10-30T19:48:57.624Z,12.50
2022-10-30T19:51:27.161Z,12.40
2022-10-30T19:53:56.321Z,12.10
2022-10-30T19:56:26.050Z,11.70
2022-10-30T19:58:55.638Z,11.30
2022-10-30T20:01:26.915Z,11.00
2022-10-30T20:03:56.787Z,10.80
2022-10-30T20:06:27.144Z,10.60
2022-10-30T20:08:57.834Z,10.50
2022-10-30T20:11:26.959Z,10.40
2022-10-30T20:13:55.946Z,10.30
2022-10-30T20:16:26.204Z,10.30
2022-10-30T20:18:55.081Z,10.30
2022-10-30T20:21:23.895Z,10.20
2022-10-30T20:23:52.803Z,10.10
2022-10-30T20:26:26.182Z,10.10
2022-10-30T20:28:55.633Z,10.10
2022-10-30T20:31:25.849Z,10.10
2022-10-30T20:33:54.470Z,10.10
2022-10-30T20:36:22.950Z,10.00
2022-10-30T20:38:51.645Z,10.00
2022-10-30T20:41:23.192Z,10.00
2022-10-30T20:43:52.107Z,10.00
2022-10-30T20:46:21.496Z,10.10
2022-10-30T20:48:51.645Z,10.00
2022-10-30T20:51:21.403Z,10.00
2022-10-30T20:53:50.028Z,10.00
2022-10-30T20:56:18.811Z,10.00
2022-10-30T20:58:47.584Z,10.00
2022-10-30T21:01:16.226Z,10.10
2022-10-30T21:03:44.963Z,10.00
2022-10-30T21:06:15.775Z,10.00
2022-10-30T21:08:44.621Z,10.00
2022-10-30T21:11:13.171Z,10.00
2022-10-30T21:13:41.796Z,10.10
2022-10-30T21:16:11.469Z,10.10
2022-10-30T21:18:40.169Z,10.30
2022-10-30T21:21:11.611Z,10.30
2022-10-30T21:23:41.658Z,10.30
2022-10-30T21:26:12.134Z,10.30
2022-10-30T21:28:40.959Z,10.20
2022-10-30T21:31:13.852Z,10.10
2022-10-30T21:33:42.651Z,10.20
2022-10-30T21:36:13.990Z,10.10
2022-10-30T21:38:45.658Z,10.10
2022-10-30T21:41:15.996Z,10.10
2022-10-30T21:43:44.880Z,10.10
2022-10-30T21:46:14.303Z,10.00
2022-10-30T21:48:43.068Z,10.00
2022-10-30T21:51:13.063Z,10.00
2022-10-30T21:53:43.924Z,10.00
2022-10-30T21:56:14.591Z,10.00
2022-10-30T21:58:44.851Z,10.00
2022-10-30T22:01:18.508Z,9.90
2022-10-30T22:03:47.834Z,9.90
2022-10-30T22:06:18.806Z,9.80
2022-10-30T22:08:50.153Z,9.80
2022-10-30T22:11:19.850Z,9.80
2022-10-30T22:13:48.864Z,9.70
2022-10-30T22:16:17.522Z,9.70
2022-10-30T22:18:46.343Z,9.70
2022-10-30T22:21:15.305Z,9.60
2022-10-30T22:23:44.407Z,9.60
2022-10-30T22:26:16.469Z,9.50
2022-10-30T22:28:45.785Z,9.50
2022-10-30T22:31:15.940Z,9.40
2022-10-30T22:33:45.265Z,9.50
2022-10-30T22:36:18.622Z,9.50
2022-10-30T22:38:48.099Z,9.50
2022-10-30T22:41:19.931Z,9.50
2022-10-30T22:43:50.043Z,9.50
2022-10-30T22:46:19.985Z,9.50
2022-10-30T22:48:48.813Z,9.50
2022-10-30T22:51:19.798Z,9.40
2022-10-30T22:53:55.384Z,9.40
2022-10-30T22:56:27.782Z,9.40
2022-10-30T22:58:57.208Z,9.30
2022-10-30T23:01:27.662Z,9.20
2022-10-30T23:03:58.383Z,9.10
2022-10-30T23:06:28.043Z,9.20
2022-10-30T23:08:59.391Z,9.20
2022-10-30T23:11:30.580Z,9.30
2022-10-30T23:13:59.447Z,9.20
2022-10-30T23:16:28.304Z,9.10
2022-10-30T23:18:58.586Z,9.00
2022-10-30T23:21:29.374Z,8.80
2022-10-30T23:23:58.637Z,8.80
2022-10-30T23:26:31.815Z,8.90
2022-10-30T23:29:01.595Z,9.00
2022-10-30T23:31:32.527Z,9.10
2022-10-30T23:34:02.732Z,9.20
2022-10-30T23:36:31.382Z,9.30
2022-10-30T23:39:01.716Z,9.30
2022-10-30T23:41:34.487Z,9.20
2022-10-30T23:44:06.299Z,9.20
2022-10-30T23:46:36.203Z,9.00
2022-10-30T23:49:05.414Z,8.90
2022-10-30T23:51:34.876Z,8.90
2022-10-30T23:54:03.631Z,8.80
2022-10-30T23:56:33.784Z,8.80
2022-10-30T23:59:02.599Z,8.80
